METAR Data
IDs: Format: Raw Decoded Include TAF

Data at: 2329 UTC 25 Oct 2021

KBKD 250335Z AUTO 00000KT 7SM CLR 20/06 A2990 RMK AO2 T01950064
KBKD 250315Z AUTO 08004KT 10SM CLR 20/06 A2989 RMK AO2 T02000061
KBKD 250255Z AUTO 00000KT 10SM CLR 20/06 A2988 RMK AO2 T01990056
KBKD 250235Z AUTO 00000KT 10SM CLR 21/05 A2988 RMK AO2 T02050054
KBKD 250215Z AUTO 00000KT 10SM CLR 21/05 A2986 RMK AO2 T02100053
KBKD 250155Z AUTO 00000KT 10SM CLR 22/05 A2985 RMK AO2 T02200053
KBKD 250135Z AUTO 00000KT 7SM CLR 23/05 A2984 RMK AO2 T02320051
KBKD 250115Z AUTO 05003KT 7SM CLR 24/05 A2983 RMK AO2 T02440053
KBKD 250055Z AUTO 05004KT 10SM CLR 25/05 A2982 RMK AO2 T02530053
KBKD 250035Z AUTO 04005KT 10SM CLR 26/06 A2982 RMK AO2 T02640056
KBKD 250015Z AUTO 36004KT 10SM CLR 26/06 A2980 RMK AO2 T02640058
KBKD 242355Z AUTO 33003KT 10SM CLR 28/06 A2979 RMK AO2 T02820058 10345 20282
KBKD 242335Z AUTO 00000KT 10SM CLR 30/06 A2979 RMK AO2 T03020058
KBKD 242315Z AUTO 00000KT 10SM CLR 32/05 A2978 RMK AO2 T03210050
KBKD 242255Z AUTO 30003KT 10SM CLR 33/05 A2978 RMK AO2 T03290051
KBKD 242235Z AUTO 27007KT 10SM CLR 33/05 A2978 RMK AO2 T03330048
KBKD 242215Z AUTO 27006KT 10SM CLR 34/05 A2978 RMK AO2 T03380050
KBKD 242155Z AUTO 28010G14KT 10SM CLR 34/05 A2977 RMK AO2 T03400053
KBKD 242135Z AUTO 27011KT 10SM CLR 34/05 A2976 RMK AO2 T03420049
KBKD 242115Z AUTO 26008G15KT 10SM CLR 34/05 A2976 RMK AO2 T03440054
KBKD 242055Z AUTO 26009KT 10SM CLR 34/05 A2976 RMK AO2 T03440053
KBKD 242035Z AUTO 27007G11KT 10SM CLR 34/06 A2976 RMK AO2 T03430058
KBKD 242015Z AUTO 27012G20KT 10SM CLR 34/05 A2976 RMK AO2 T03410053
KBKD 241955Z AUTO 24011G15KT 10SM CLR 34/07 A2976 RMK AO2 T03420066
KBKD 241935Z AUTO 27012G16KT 10SM CLR 34/08 A2976 RMK AO2 T03380076
KBKD 241915Z AUTO 27014G18KT 10SM CLR 34/10 A2976 RMK AO2 T03350097
KBKD 241855Z AUTO 26011G16KT 10SM CLR 33/12 A2977 RMK AO2 T03320124
KBKD 241835Z AUTO 26013G20KT 10SM CLR 33/13 A2978 RMK AO2 T03270126
KBKD 241815Z AUTO 25013KT 10SM CLR 33/15 A2979 RMK AO2 T03250145
KBKD 241755Z AUTO 27012G16KT 10SM CLR 32/15 A2980 RMK AO2 T03200146 10320 20213
KBKD 241735Z AUTO 25009G17KT 10SM CLR 31/17 A2981 RMK AO2 T03100169
KBKD 241715Z AUTO 23011G17KT 10SM CLR 30/18 A2981 RMK AO2 T03020177
KBKD 241655Z AUTO 22013G17KT 10SM CLR 30/18 A2981 RMK AO2 T02950183
KBKD 241635Z AUTO 22013G21KT 10SM CLR 29/19 A2981 RMK AO2 T02860186
KBKD 241615Z AUTO 21012G20KT 10SM CLR 28/19 A2981 RMK AO2 T02830188
KBKD 241555Z AUTO 23015G20KT 7SM CLR 28/19 A2982 RMK AO2 T02790189
KBKD 241535Z AUTO 21013G19KT 10SM CLR 27/19 A2981 RMK AO2 T02700191
KBKD 241515Z AUTO 21014G23KT 10SM CLR 26/19 A2981 RMK AO2 T02600190
KBKD 241455Z AUTO 20013G19KT 10SM CLR 25/19 A2981 RMK AO2 T02520191
KBKD 241435Z AUTO 20010G14KT 10SM CLR 24/19 A2982 RMK AO2 T02400192
KBKD 241415Z AUTO 20010KT 10SM CLR 23/19 A2981 RMK AO2 T02340190
KBKD 241355Z AUTO 17010G14KT 10SM CLR 23/19 A2981 RMK AO2 T02270191
KBKD 241335Z AUTO 18007KT 10SM CLR 22/19 A2981 RMK AO2 T02180189
KBKD 241315Z AUTO 19006KT 10SM CLR 22/19 A2981 RMK AO2 T02150189
KBKD 241255Z AUTO 19008KT 10SM CLR 21/19 A2980 RMK AO2 T02130186
KBKD 241235Z AUTO 18007KT 10SM SCT120 22/19 A2979 RMK AO2 T02150185
KBKD 241215Z AUTO 18009G14KT 10SM SCT120 22/19 A2979 RMK AO2 T02150186
KBKD 241155Z AUTO 17008G15KT 10SM CLR 21/19 A2978 RMK AO2 T02140185 10235 20213
KBKD 241135Z AUTO 18010G14KT 10SM CLR 21/19 A2978 RMK AO2 T02130185